Kelly Anne — WDH7652 — position and weather

sailwx.info

Track history (hours):
 
Tides and Currents Weather Stations Pressure Air Temp Water Temp Dewpoint Dewpoint Depression Visibility Wind Speed Wind Dir Waves Ship Positions

Kelly Anne

Owner: Kelly Anne LLC, Brielle, NJ. More information available from US FCC via Universal Licensing System and Coast Guard Vessel Documentation Center.

Last reported at 2018-May-23 22:41 UTC. Time now 2018-Jun-19 08:16 UTC.
Position N 26°03' W 079°48'.
Warning: this ship's position is 26 days out of date.

Type: Pleasure craft. MMSI: 367650250.

Date/timePositionNaut miles runAvg speedWind from/ knotsBaromVisibWave heightAir tempDewpointWater temp
2018-May-23 22:41N 26°03' W 079°48'2 9.5
2018-May-23 22:30N 26°03' W 079°50'5 9.1
2018-May-23 22:00N 26°05' W 079°55'3 6.3
2018-May-23 21:30N 26°05' W 079°58'3 6.7
2018-May-23 21:00N 26°05' W 080°02'5 9.2
2018-May-23 20:30N 26°06' W 080°07'2 3.8
2018-May-23 20:00N 26°07' W 080°09'1 2.5
2018-May-23 19:30N 26°06' W 080°10'1 1.6
2018-May-23 18:54N 26°06' W 080°10'0 0.0
2018-May-23 18:30N 26°06' W 080°10'0 0.0
2018-May-23 17:57N 26°06' W 080°10'0 0.0
2018-May-23 17:30N 26°06' W 080°10'0 0.0
2018-May-23 17:00N 26°06' W 080°10'0 0.0
2018-May-23 16:30N 26°06' W 080°10'0 0.0
2018-May-23 16:00N 26°06' W 080°10'0 0.0
2018-May-23 15:30N 26°06' W 080°10'0 0.0
2018-May-23 15:00N 26°06' W 080°10'0 0.0
2018-May-23 14:30N 26°06' W 080°10'0 0.0
2018-May-23 14:00N 26°06' W 080°10'0 0.0
2018-May-23 13:30N 26°06' W 080°10'0 0.0
2018-May-23 13:00N 26°06' W 080°10'0 0.0
2018-May-23 12:30N 26°06' W 080°10'0 0.0
2018-May-23 12:00N 26°06' W 080°10'0 0.0
2018-May-23 11:15N 26°06' W 080°10'0 0.0
2018-May-23 10:57N 26°06' W 080°10'0 0.0
2018-May-23 10:18N 26°06' W 080°10'0 0.0
2018-May-23 08:06N 26°06' W 080°10'0 0.0
2018-May-23 08:00N 26°06' W 080°10'0 0.0
2018-May-23 07:18N 26°06' W 080°10'0 0.0
2018-May-23 05:57N 26°06' W 080°10'0 0.0
2018-May-23 05:27N 26°06' W 080°10'0 0.0
2018-May-23 04:48N 26°06' W 080°10'0 0.0
2018-May-23 04:24N 26°06' W 080°10'0 0.0
2018-May-22 21:36N 26°06' W 080°10'0 0.0
2018-May-22 19:17N 26°06' W 080°10'1 3.6
2018-May-22 19:00N 26°06' W 080°10'1 2.6
2018-May-22 18:30N 26°07' W 080°08'2 4.0
2018-May-22 18:00N 26°06' W 080°07'2 4.0
2018-May-22 17:30N 26°05' W 080°05'4 6.4
2018-May-22 16:57N 26°07' W 080°08'1 2.6
2018-May-22 16:31N 26°07' W 080°09'2 3.7
2018-May-22 16:00N 26°05' W 080°11'1 1.0
2018-May-22 15:25N 26°05' W 080°11'0 0.0
2018-May-22 14:58N 26°05' W 080°11'0 0.1
2018-May-22 13:38N 26°05' W 080°11'1 4.4
2018-May-22 13:30N 26°05' W 080°11'0 0.2
2018-May-22 12:18N 26°06' W 080°10'0 0.0
2018-May-22 10:54N 26°06' W 080°10'0 0.0
2018-May-22 10:12N 26°06' W 080°10'0 0.0
2018-May-22 09:48N 26°06' W 080°10'0 0.0
2018-May-22 09:12N 26°06' W 080°10'0 0.0
2018-May-22 08:54N 26°06' W 080°10'0 0.0
2018-May-22 08:30N 26°06' W 080°10'0 0.0
2018-May-22 07:48N 26°06' W 080°10'0 0.0
2018-May-22 07:24N 26°06' W 080°10'0 0.0
2018-May-22 06:57N 26°06' W 080°10'0 0.0
2018-May-22 06:30N 26°06' W 080°10'0 0.0
2018-May-22 05:45N 26°06' W 080°10'0 0.0
2018-May-22 05:30N 26°06' W 080°10'0 0.0
2018-May-22 04:54N 26°06' W 080°10'0 0.0
2018-May-22 04:12N 26°06' W 080°10'0 0.0
2018-May-22 03:54N 26°06' W 080°10'0 0.0
2018-May-22 03:24N 26°06' W 080°10'0 0.0
2018-May-22 02:54N 26°06' W 080°10'0 0.0
2018-May-22 02:18N 26°06' W 080°10'0 0.0
2018-May-22 01:54N 26°06' W 080°10'0 0.0
2018-May-22 01:30N 26°06' W 080°10'0 0.0
2018-May-21 20:48N 26°06' W 080°10'0 0.0
2018-May-21 20:30N 26°06' W 080°10'0 0.0
2018-May-21 18:27N 26°06' W 080°10'0 0.0
2018-May-21 17:57N 26°06' W 080°10'0 0.0
2018-May-21 15:00N 26°06' W 080°10'0 0.0
2018-May-21 02:09N 26°06' W 080°10'0 0.0
2018-May-21 01:51N 26°06' W 080°10'0 0.0
2018-May-20 17:27N 26°06' W 080°10'0 0.0
2018-May-20 16:15N 26°06' W 080°10'0 0.0
2018-May-20 14:00N 26°06' W 080°10'0 0.0
2018-May-20 13:27N 26°06' W 080°10'0 0.0
2018-May-20 12:33N 26°06' W 080°10'0 0.0
2018-May-20 12:27N 26°06' W 080°10'0 0.0
2018-May-20 12:00N 26°06' W 080°10'0 0.0
2018-May-20 08:09N 26°06' W 080°10'0 0.0
2018-May-20 07:57N 26°06' W 080°10'0 0.0
2018-May-20 07:27N 26°06' W 080°10'0 0.0
2018-May-20 06:27N 26°06' W 080°10'0 0.0
2018-May-20 05:57N 26°06' W 080°10'0 0.0
2018-May-20 05:27N 26°06' W 080°10'0 0.0
2018-May-20 04:57N 26°06' W 080°10'0 0.0
2018-May-20 04:30N 26°06' W 080°10'0 0.0
2018-May-20 04:00N 26°06' W 080°10'0 0.0
2018-May-20 03:30N 26°06' W 080°10'0 0.0
2018-May-20 03:00N 26°06' W 080°10'0 0.0
2018-May-20 02:30N 26°06' W 080°10'0 0.0
2018-May-20 02:00N 26°06' W 080°10'0 0.0
2018-May-20 01:30N 26°06' W 080°10'0 0.0
2018-May-20 01:00N 26°06' W 080°10'0 0.0
2018-May-20 00:30N 26°06' W 080°10'0 0.0
2018-May-20 00:00N 26°06' W 080°10'0 0.0
2018-May-19 23:30N 26°06' W 080°10'0 0.0
2018-May-19 23:00N 26°06' W 080°10'0 0.0
2018-May-19 22:30N 26°06' W 080°10'0 0.0
2018-May-19 22:00N 26°06' W 080°10'0 0.0
2018-May-19 21:30N 26°06' W 080°10'0 0.0
2018-May-19 20:51N 26°06' W 080°10'0 0.0
2018-May-19 20:24N 26°06' W 080°10'0 0.0
2018-May-19 19:54N 26°06' W 080°10'0 0.0
2018-May-19 19:24N 26°06' W 080°10'0 0.0
2018-May-19 18:57N 26°06' W 080°10'0 0.0
2018-May-19 18:21N 26°06' W 080°10'0 0.0
2018-May-19 17:54N 26°06' W 080°10'0 0.0
2018-May-19 17:24N 26°06' W 080°10'0 0.0
2018-May-19 16:54N 26°06' W 080°10'0 0.0
2018-May-19 16:27N 26°06' W 080°10'0 0.0
2018-May-19 15:57N 26°06' W 080°10'0 0.0
2018-May-19 15:27N 26°06' W 080°10'0 0.0
2018-May-19 14:57N 26°06' W 080°10'0 0.5
2018-May-19 14:30N 26°06' W 080°10'0 0.5
2018-May-19 14:00N 26°06' W 080°10'0 0.0
2018-May-19 13:30N 26°06' W 080°10'0 0.0
2018-May-19 13:00N 26°06' W 080°10'0 0.0
2018-May-19 12:27N 26°06' W 080°10'0 0.0
2018-May-19 11:57N 26°06' W 080°10'0 0.0
2018-May-19 11:30N 26°06' W 080°10'0 0.0
2018-May-19 11:00N 26°06' W 080°10'0 0.0
2018-May-19 10:30N 26°06' W 080°10'0 0.0
2018-May-19 10:00N 26°06' W 080°10'0 0.5
2018-May-19 09:30N 26°06' W 080°10'0 0.5
2018-May-19 09:00N 26°06' W 080°10'0 0.0
2018-May-19 08:30N 26°06' W 080°10'0 0.0
2018-May-19 07:51N 26°06' W 080°10'0 0.0
2018-May-19 07:21N 26°06' W 080°10'0 0.0
2018-May-19 06:51N 26°06' W 080°10'0 0.0
2018-May-19 06:27N 26°06' W 080°10'0 0.0
2018-May-19 05:54N 26°06' W 080°10'0 0.0
2018-May-19 05:24N 26°06' W 080°10'0 0.0
2018-May-19 04:54N 26°06' W 080°10'0 0.0
2018-May-19 04:30N 26°06' W 080°10'0 0.0
2018-May-19 03:54N 26°06' W 080°10'0 0.0
2018-May-19 03:24N 26°06' W 080°10'0 0.0
2018-May-19 02:57N 26°06' W 080°10'0 0.0
2018-May-19 02:27N 26°06' W 080°10'0 0.0
2018-May-19 01:57N 26°06' W 080°10'0 0.0
2018-May-19 01:27N 26°06' W 080°10'0 0.0
2018-May-19 00:57N 26°06' W 080°10'0 0.0
2018-May-19 00:30N 26°06' W 080°10'0 0.0
2018-May-18 23:57N 26°06' W 080°10'0 0.0
2018-May-18 23:30N 26°06' W 080°10'0 0.0
2018-May-18 23:00N 26°06' W 080°10'0 0.0
2018-May-18 22:30N 26°06' W 080°10'0 0.0
2018-May-18 21:57N 26°06' W 080°10'0 0.0
2018-May-18 21:30N 26°06' W 080°10'0 0.0
2018-May-18 21:00N 26°06' W 080°10'0 0.0
2018-May-18 20:30N 26°06' W 080°10'0 0.0
2018-May-18 20:00N 26°06' W 080°10'0 0.0
2018-May-18 19:30N 26°06' W 080°10'0 0.0
2018-May-18 19:00N 26°06' W 080°10'0 0.0
2018-May-18 18:30N 26°06' W 080°10'0 0.0
2018-May-18 18:00N 26°06' W 080°10'0 0.0
2018-May-18 17:21N 26°06' W 080°10'0 0.0
2018-May-18 16:51N 26°06' W 080°10'0 0.0
2018-May-18 16:21N 26°06' W 080°10'0 0.0
2018-May-18 15:54N 26°06' W 080°10'0 0.0
2018-May-18 15:24N 26°06' W 080°10'0 0.0
2018-May-18 15:00N 26°06' W 080°10'0 0.0
2018-May-18 14:27N 26°06' W 080°10'0 0.0
2018-May-18 13:54N 26°06' W 080°10'0 0.0
2018-May-18 13:27N 26°06' W 080°10'0 0.0
2018-May-18 12:42N 26°06' W 080°10'0 0.0
2018-May-18 12:27N 26°06' W 080°10'0 0.0
2018-May-18 11:57N 26°06' W 080°10'0 0.0
2018-May-18 11:24N 26°06' W 080°10'0 0.0
2018-May-18 10:57N 26°06' W 080°10'0 0.0
2018-May-18 10:30N 26°06' W 080°10'0 0.0
2018-May-18 10:00N 26°06' W 080°10'0 0.0
2018-May-18 09:30N 26°06' W 080°10'0 0.0
2018-May-18 09:00N 26°06' W 080°10'0 0.0
2018-May-18 08:30N 26°06' W 080°10'0 0.0
2018-May-18 08:00N 26°06' W 080°10'0 0.0
2018-May-18 07:30N 26°06' W 080°10'0 0.0
2018-May-18 07:00N 26°06' W 080°10'0 0.0
2018-May-18 06:30N 26°06' W 080°10'0 0.0
2018-May-18 06:00N 26°06' W 080°10'0 0.0
2018-May-18 05:30N 26°06' W 080°10'0 0.0
2018-May-18 05:00N 26°06' W 080°10'0 0.0
2018-May-18 04:30N 26°06' W 080°10'0 0.0
2018-May-18 04:00N 26°06' W 080°10'0 0.0
2018-May-18 03:21N 26°06' W 080°10'0 0.0
2018-May-18 02:51N 26°06' W 080°10'0 0.0
2018-May-18 02:24N 26°06' W 080°10'0 0.0
2018-May-18 01:54N 26°06' W 080°10'0 0.0
2018-May-18 01:24N 26°06' W 080°10'0 0.0
2018-May-18 00:54N 26°06' W 080°10'0 0.0
2018-May-18 00:24N 26°06' W 080°10'0 0.0
2018-May-17 23:54N 26°06' W 080°10'0 0.0
2018-May-17 23:27N 26°06' W 080°10'0 0.0
2018-May-17 22:57N 26°06' W 080°10'0 0.0
2018-May-17 22:30N 26°06' W 080°10'0 0.0
2018-May-17 21:57N 26°06' W 080°10'0 0.0
2018-May-17 21:27N 26°06' W 080°10'0 0.0
2018-May-17 20:57N 26°06' W 080°10'0 0.0
2018-May-17 20:30N 26°06' W 080°10'0 0.0
2018-May-17 20:00N 26°06' W 080°10'0 0.0
2018-May-17 19:30N 26°06' W 080°10'0 0.0
2018-May-17 19:00N 26°06' W 080°10'0 0.0
2018-May-17 18:30N 26°06' W 080°10'0 0.0
2018-May-17 18:00N 26°06' W 080°10'0 0.0
2018-May-17 17:30N 26°06' W 080°10'0 0.0
2018-May-17 17:00N 26°06' W 080°10'0 0.0
2018-May-17 16:30N 26°06' W 080°10'0 0.0
2018-May-17 16:00N 26°06' W 080°10'0 0.0
2018-May-17 15:30N 26°06' W 080°10'0 0.0
2018-May-17 15:00N 26°06' W 080°10'0 0.0
2018-May-17 14:21N 26°06' W 080°10'0 0.0
2018-May-17 13:51N 26°06' W 080°10'0 0.0
2018-May-17 13:21N 26°06' W 080°10'0 0.0
2018-May-17 12:54N 26°06' W 080°10'0 0.0
2018-May-17 12:24N 26°06' W 080°10'0 0.0
2018-May-17 11:54N 26°06' W 080°10'0 0.0
2018-May-17 11:24N 26°06' W 080°10'0 0.0
2018-May-17 10:54N 26°06' W 080°10'0 0.0
2018-May-17 10:24N 26°06' W 080°10'0 0.0
2018-May-17 09:57N 26°06' W 080°10'0 0.0
2018-May-17 09:27N 26°06' W 080°10'0 0.0
2018-May-17 08:57N 26°06' W 080°10'0 0.0
2018-May-17 08:27N 26°06' W 080°10'0 0.0
2018-May-17 07:57N 26°06' W 080°10'0 0.0
2018-May-17 07:27N 26°06' W 080°10'0 0.0
2018-May-17 06:57N 26°06' W 080°10'0 0.0
2018-May-17 06:30N 26°06' W 080°10'0 0.0
2018-May-17 06:00N 26°06' W 080°10'0 0.0
2018-May-17 05:30N 26°06' W 080°10'0 0.0
2018-May-17 05:00N 26°06' W 080°10'0 0.0
2018-May-17 04:30N 26°06' W 080°10'0 0.0
2018-May-17 03:57N 26°06' W 080°10'0 0.0
2018-May-17 03:30N 26°06' W 080°10'0 0.0
2018-May-17 03:00N 26°06' W 080°10'0 0.0
2018-May-17 02:30N 26°06' W 080°10'0 0.0
2018-May-17 02:00N 26°06' W 080°10'0 0.0
2018-May-17 01:30N 26°06' W 080°10'0 0.0
2018-May-17 01:00N 26°06' W 080°10'0 0.0
2018-May-17 00:30N 26°06' W 080°10'0 0.0
2018-May-16 23:51N 26°06' W 080°10'0 0.0
2018-May-16 23:21N 26°06' W 080°10'0 0.0
2018-May-16 22:51N 26°06' W 080°10'0 0.0
2018-May-16 22:24N 26°06' W 080°10'0 0.0
2018-May-16 21:54N 26°06' W 080°10'0 0.0
2018-May-16 21:24N 26°06' W 080°10'0 0.0
2018-May-16 20:54N 26°06' W 080°10'0 0.0
2018-May-16 20:24N 26°06' W 080°10'0 0.0
2018-May-16 19:54N 26°06' W 080°10'0 0.0
2018-May-16 19:27N 26°06' W 080°10'0 0.0
2018-May-16 18:57N 26°06' W 080°10'0 0.0
2018-May-16 18:27N 26°06' W 080°10'0 0.0
2018-May-16 17:57N 26°06' W 080°10'0 0.0
2018-May-16 17:27N 26°06' W 080°10'0 0.0
2018-May-16 17:00N 26°06' W 080°10'0 0.0
2018-May-16 16:30N 26°06' W 080°10'0 0.0
2018-May-16 16:00N 26°06' W 080°10'0 0.0
2018-May-16 15:30N 26°06' W 080°10'0 0.0
2018-May-16 14:57N 26°06' W 080°10'0 0.0
2018-May-16 14:30N 26°06' W 080°10'0 0.0
2018-May-16 14:00N 26°06' W 080°10'0 0.0
2018-May-16 13:30N 26°06' W 080°10'0 0.0
2018-May-16 13:00N 26°06' W 080°10'0 0.0
2018-May-16 12:30N 26°06' W 080°10'0 0.0
2018-May-16 12:00N 26°06' W 080°10'0 0.0
2018-May-16 11:30N 26°06' W 080°10'0 0.0
2018-May-16 11:00N 26°06' W 080°10'0 0.0
2018-May-16 10:21N 26°06' W 080°10'0 0.0
2018-May-16 09:51N 26°06' W 080°10'0 0.0
2018-May-16 09:21N 26°06' W 080°10'0 0.0
2018-May-16 08:51N 26°06' W 080°10'0 0.0
2018-May-16 08:24N 26°06' W 080°10'0 0.0
2018-May-16 07:54N 26°06' W 080°10'0 0.0
2018-May-16 07:24N 26°06' W 080°10'0 0.0
2018-May-16 06:54N 26°06' W 080°10'0 0.0
2018-May-16 06:24N 26°06' W 080°10'0 0.0
2018-May-16 05:57N 26°06' W 080°10'0 0.0
2018-May-16 05:27N 26°06' W 080°10'0 0.0
2018-May-16 04:57N 26°06' W 080°10'0 0.0
2018-May-16 04:30N 26°06' W 080°10'0 0.0
2018-May-16 03:57N 26°06' W 080°10'0 0.0
2018-May-16 03:24N 26°06' W 080°10'0 0.0
2018-May-16 03:00N 26°06' W 080°10'0 0.0
2018-May-16 02:30N 26°06' W 080°10'0 0.0
2018-May-16 02:00N 26°06' W 080°10'0 0.0
2018-May-16 01:30N 26°06' W 080°10'0 0.0
2018-May-16 01:00N 26°06' W 080°10'0 0.0
2018-May-16 00:30N 26°06' W 080°10'0 0.0
2018-May-16 00:00N 26°06' W 080°10'0 0.0
2018-May-15 23:30N 26°06' W 080°10'0 0.0
2018-May-15 23:00N 26°06' W 080°10'0 0.0
2018-May-15 22:30N 26°06' W 080°10'0 0.0
2018-May-15 22:00N 26°06' W 080°10'0 0.0
2018-May-15 21:30N 26°06' W 080°10'0 0.0
2018-May-15 21:00N 26°06' W 080°10'0 0.0
2018-May-15 20:21N 26°06' W 080°10'0 0.0
2018-May-15 19:51N 26°06' W 080°10'0 0.0
2018-May-15 19:21N 26°06' W 080°10'0 0.0
2018-May-15 18:54N 26°06' W 080°10'0 0.0
2018-May-15 18:24N 26°06' W 080°10'0 0.0
2018-May-15 17:54N 26°06' W 080°10'0 0.0
2018-May-15 17:24N 26°06' W 080°10'0 0.0
2018-May-15 16:54N 26°06' W 080°10'0 0.0
2018-May-15 16:24N 26°06' W 080°10'0 0.0
2018-May-15 15:57N 26°06' W 080°10'0 0.0
2018-May-15 15:27N 26°06' W 080°10'0 0.0
2018-May-15 14:57N 26°06' W 080°10'0 0.0
2018-May-15 14:27N 26°06' W 080°10'0 0.0
2018-May-15 13:57N 26°06' W 080°10'0 0.0
2018-May-15 13:30N 26°06' W 080°10'0 0.0
2018-May-15 12:57N 26°06' W 080°10'0 0.0
2018-May-15 12:30N 26°06' W 080°10'0 0.0
2018-May-15 12:00N 26°06' W 080°10'0 0.0
2018-May-15 11:30N 26°06' W 080°10'0 0.0
2018-May-15 11:00N 26°06' W 080°10'0 0.0
2018-May-15 10:27N 26°06' W 080°10'0 0.0
2018-May-15 10:00N 26°06' W 080°10'0 0.0
2018-May-15 09:30N 26°06' W 080°10'0 0.0
2018-May-15 09:00N 26°06' W 080°10'0 0.0
2018-May-15 08:30N 26°06' W 080°10'0 0.0
2018-May-15 08:00N 26°06' W 080°10'0 0.0
2018-May-15 07:30N 26°06' W 080°10'0 0.0
2018-May-15 07:00N 26°06' W 080°10'0 0.0
2018-May-15 06:30N 26°06' W 080°10'0 0.0
2018-May-15 05:51N 26°06' W 080°10'0 0.0
2018-May-15 05:21N 26°06' W 080°10'0 0.0
2018-May-15 05:00N 26°06' W 080°10'0 0.0
2018-May-15 04:27N 26°06' W 080°10'0 0.0
2018-May-15 03:54N 26°06' W 080°10'0 0.0
2018-May-15 03:24N 26°06' W 080°10'0 0.0
2018-May-15 02:54N 26°06' W 080°10'0 0.0
2018-May-15 02:24N 26°06' W 080°10'0 0.0
2018-May-15 01:57N 26°06' W 080°10'0 0.0
2018-May-15 01:24N 26°06' W 080°10'0 0.0
2018-May-15 00:57N 26°06' W 080°10'0 0.0
2018-May-15 00:27N 26°06' W 080°10'0 0.0
2018-May-14 23:57N 26°06' W 080°10'0 0.0
2018-May-14 23:27N 26°06' W 080°10'0 0.0
2018-May-14 23:00N 26°06' W 080°10'0 0.0
2018-May-14 22:30N 26°06' W 080°10'0 0.0
2018-May-14 21:45N 26°06' W 080°10'0 0.0
2018-May-14 21:27N 26°06' W 080°10'0 0.0
2018-May-14 21:00N 26°06' W 080°10'0 0.0
2018-May-14 20:30N 26°06' W 080°10'0 0.0
2018-May-14 20:00N 26°06' W 080°10'0 0.0
2018-May-14 19:30N 26°06' W 080°10'0 0.0
2018-May-14 19:00N 26°06' W 080°10'0 0.0
2018-May-14 18:30N 26°06' W 080°10'0 0.0
2018-May-14 17:51N 26°06' W 080°10'0 0.0
2018-May-14 17:30N 26°06' W 080°10'0 0.0
2018-May-14 17:00N 26°06' W 080°10'0 0.0
2018-May-14 16:30N 26°06' W 080°10'0 0.0
2018-May-14 15:54N 26°06' W 080°10'0 0.0
2018-May-14 15:09N 26°06' W 080°10'0 0.0
2018-May-14 14:54N 26°06' W 080°10'0 0.0
2018-May-14 14:27N 26°06' W 080°10'0 0.0
2018-May-14 13:54N 26°06' W 080°10'0 0.0
2018-May-14 13:24N 26°06' W 080°10'0 0.0
2018-May-14 12:54N 26°06' W 080°10'0 0.0
2018-May-14 12:27N 26°06' W 080°10'0 0.0
2018-May-14 11:54N 26°06' W 080°10'0 0.0
2018-May-14 11:27N 26°06' W 080°10'0 0.0
2018-May-14 10:57N 26°06' W 080°10'0 0.0
2018-May-14 10:27N 26°06' W 080°10'0 0.0
2018-May-14 09:57N 26°06' W 080°10'0 0.0
2018-May-14 09:30N 26°06' W 080°10'0 0.0
2018-May-14 09:00N 26°06' W 080°10'0 0.0
2018-May-14 08:30N 26°06' W 080°10'0 0.0
2018-May-14 08:00N 26°06' W 080°10'0 0.0
2018-May-14 07:30N 26°06' W 080°10'0 0.0
2018-May-14 07:00N 26°06' W 080°10'0 0.0
2018-May-14 06:30N 26°06' W 080°10'0 0.0
2018-May-14 06:00N 26°06' W 080°10'0 0.0
2018-May-14 05:30N 26°06' W 080°10'0 0.0
2018-May-14 05:00N 26°06' W 080°10'0 0.0
2018-May-14 04:30N 26°06' W 080°10'0 0.0
2018-May-14 04:00N 26°06' W 080°10'0 0.0
2018-May-14 03:30N 26°06' W 080°10'0 0.0
2018-May-14 03:00N 26°06' W 080°10'0 0.0
2018-May-14 02:27N 26°06' W 080°10'0 0.0
2018-May-14 01:51N 26°06' W 080°10'0 0.0
2018-May-14 01:30N 26°06' W 080°10'0 0.0
2018-May-14 00:54N 26°06' W 080°10'0 0.0
2018-May-14 00:24N 26°06' W 080°10'0 0.0
2018-May-13 23:54N 26°06' W 080°10'0 0.0
2018-May-13 23:24N 26°06' W 080°10'0 0.0
2018-May-13 22:54N 26°06' W 080°10'  
Track history (hours):
 
Tides and Currents Weather Stations Pressure Air Temp Water Temp Dewpoint Dewpoint Depression Visibility Wind Speed Wind Dir Waves Ship Positions

Kelly Anne

Owner: Kelly Anne LLC, Brielle, NJ. More information available from US FCC via Universal Licensing System and Coast Guard Vessel Documentation Center.

Last reported at 2018-May-23 22:41 UTC. Time now 2018-Jun-19 08:16 UTC.
Position N 26°03' W 079°48'.
Warning: this ship's position is 26 days out of date.

Type: Pleasure craft. MMSI: 367650250.

Date/timePositionNaut miles runAvg speedWind from/ knotsBaromVisibWave heightAir tempDewpointWater temp
2018-May-23 22:41N 26°03' W 079°48'2 9.5
2018-May-23 22:30N 26°03' W 079°50'5 9.1
2018-May-23 22:00N 26°05' W 079°55'3 6.3
2018-May-23 21:30N 26°05' W 079°58'3 6.7
2018-May-23 21:00N 26°05' W 080°02'5 9.2
2018-May-23 20:30N 26°06' W 080°07'2 3.8
2018-May-23 20:00N 26°07' W 080°09'1 2.5
2018-May-23 19:30N 26°06' W 080°10'1 1.6
2018-May-23 18:54N 26°06' W 080°10'0 0.0
2018-May-23 18:30N 26°06' W 080°10'0 0.0
2018-May-23 17:57N 26°06' W 080°10'0 0.0
2018-May-23 17:30N 26°06' W 080°10'0 0.0
2018-May-23 17:00N 26°06' W 080°10'0 0.0
2018-May-23 16:30N 26°06' W 080°10'0 0.0
2018-May-23 16:00N 26°06' W 080°10'0 0.0
2018-May-23 15:30N 26°06' W 080°10'0 0.0
2018-May-23 15:00N 26°06' W 080°10'0 0.0
2018-May-23 14:30N 26°06' W 080°10'0 0.0
2018-May-23 14:00N 26°06' W 080°10'0 0.0
2018-May-23 13:30N 26°06' W 080°10'0 0.0
2018-May-23 13:00N 26°06' W 080°10'0 0.0
2018-May-23 12:30N 26°06' W 080°10'0 0.0
2018-May-23 12:00N 26°06' W 080°10'0 0.0
2018-May-23 11:15N 26°06' W 080°10'0 0.0
2018-May-23 10:57N 26°06' W 080°10'0 0.0
2018-May-23 10:18N 26°06' W 080°10'0 0.0
2018-May-23 08:06N 26°06' W 080°10'0 0.0
2018-May-23 08:00N 26°06' W 080°10'0 0.0
2018-May-23 07:18N 26°06' W 080°10'0 0.0
2018-May-23 05:57N 26°06' W 080°10'0 0.0
2018-May-23 05:27N 26°06' W 080°10'0 0.0
2018-May-23 04:48N 26°06' W 080°10'0 0.0
2018-May-23 04:24N 26°06' W 080°10'0 0.0
2018-May-22 21:36N 26°06' W 080°10'0 0.0
2018-May-22 19:17N 26°06' W 080°10'1 3.6
2018-May-22 19:00N 26°06' W 080°10'1 2.6
2018-May-22 18:30N 26°07' W 080°08'2 4.0
2018-May-22 18:00N 26°06' W 080°07'2 4.0
2018-May-22 17:30N 26°05' W 080°05'4 6.4
2018-May-22 16:57N 26°07' W 080°08'1 2.6
2018-May-22 16:31N 26°07' W 080°09'2 3.7
2018-May-22 16:00N 26°05' W 080°11'1 1.0
2018-May-22 15:25N 26°05' W 080°11'0 0.0
2018-May-22 14:58N 26°05' W 080°11'0 0.1
2018-May-22 13:38N 26°05' W 080°11'1 4.4
2018-May-22 13:30N 26°05' W 080°11'0 0.2
2018-May-22 12:18N 26°06' W 080°10'0 0.0
2018-May-22 10:54N 26°06' W 080°10'0 0.0
2018-May-22 10:12N 26°06' W 080°10'0 0.0
2018-May-22 09:48N 26°06' W 080°10'0 0.0
2018-May-22 09:12N 26°06' W 080°10'0 0.0
2018-May-22 08:54N 26°06' W 080°10'0 0.0
2018-May-22 08:30N 26°06' W 080°10'0 0.0
2018-May-22 07:48N 26°06' W 080°10'0 0.0
2018-May-22 07:24N 26°06' W 080°10'0 0.0
2018-May-22 06:57N 26°06' W 080°10'0 0.0
2018-May-22 06:30N 26°06' W 080°10'0 0.0
2018-May-22 05:45N 26°06' W 080°10'0 0.0
2018-May-22 05:30N 26°06' W 080°10'0 0.0
2018-May-22 04:54N 26°06' W 080°10'0 0.0
2018-May-22 04:12N 26°06' W 080°10'0 0.0
2018-May-22 03:54N 26°06' W 080°10'0 0.0
2018-May-22 03:24N 26°06' W 080°10'0 0.0
2018-May-22 02:54N 26°06' W 080°10'0 0.0
2018-May-22 02:18N 26°06' W 080°10'0 0.0
2018-May-22 01:54N 26°06' W 080°10'0 0.0
2018-May-22 01:30N 26°06' W 080°10'0 0.0
2018-May-21 20:48N 26°06' W 080°10'0 0.0
2018-May-21 20:30N 26°06' W 080°10'0 0.0
2018-May-21 18:27N 26°06' W 080°10'0 0.0
2018-May-21 17:57N 26°06' W 080°10'0 0.0
2018-May-21 15:00N 26°06' W 080°10'0 0.0
2018-May-21 02:09N 26°06' W 080°10'0 0.0
2018-May-21 01:51N 26°06' W 080°10'0 0.0
2018-May-20 17:27N 26°06' W 080°10'0 0.0
2018-May-20 16:15N 26°06' W 080°10'0 0.0
2018-May-20 14:00N 26°06' W 080°10'0 0.0
2018-May-20 13:27N 26°06' W 080°10'0 0.0
2018-May-20 12:33N 26°06' W 080°10'0 0.0
2018-May-20 12:27N 26°06' W 080°10'0 0.0
2018-May-20 12:00N 26°06' W 080°10'0 0.0
2018-May-20 08:09N 26°06' W 080°10'0 0.0
2018-May-20 07:57N 26°06' W 080°10'0 0.0
2018-May-20 07:27N 26°06' W 080°10'0 0.0
2018-May-20 06:27N 26°06' W 080°10'0 0.0
2018-May-20 05:57N 26°06' W 080°10'0 0.0
2018-May-20 05:27N 26°06' W 080°10'0 0.0
2018-May-20 04:57N 26°06' W 080°10'0 0.0
2018-May-20 04:30N 26°06' W 080°10'0 0.0
2018-May-20 04:00N 26°06' W 080°10'0 0.0
2018-May-20 03:30N 26°06' W 080°10'0 0.0
2018-May-20 03:00N 26°06' W 080°10'0 0.0
2018-May-20 02:30N 26°06' W 080°10'0 0.0
2018-May-20 02:00N 26°06' W 080°10'0 0.0
2018-May-20 01:30N 26°06' W 080°10'0 0.0
2018-May-20 01:00N 26°06' W 080°10'0 0.0
2018-May-20 00:30N 26°06' W 080°10'0 0.0
2018-May-20 00:00N 26°06' W 080°10'0 0.0
2018-May-19 23:30N 26°06' W 080°10'0 0.0
2018-May-19 23:00N 26°06' W 080°10'0 0.0
2018-May-19 22:30N 26°06' W 080°10'0 0.0
2018-May-19 22:00N 26°06' W 080°10'0 0.0
2018-May-19 21:30N 26°06' W 080°10'0 0.0
2018-May-19 20:51N 26°06' W 080°10'0 0.0
2018-May-19 20:24N 26°06' W 080°10'0 0.0
2018-May-19 19:54N 26°06' W 080°10'0 0.0
2018-May-19 19:24N 26°06' W 080°10'0 0.0
2018-May-19 18:57N 26°06' W 080°10'0 0.0
2018-May-19 18:21N 26°06' W 080°10'0 0.0
2018-May-19 17:54N 26°06' W 080°10'0 0.0
2018-May-19 17:24N 26°06' W 080°10'0 0.0
2018-May-19 16:54N 26°06' W 080°10'0 0.0
2018-May-19 16:27N 26°06' W 080°10'0 0.0
2018-May-19 15:57N 26°06' W 080°10'0 0.0
2018-May-19 15:27N 26°06' W 080°10'0 0.0
2018-May-19 14:57N 26°06' W 080°10'0 0.5
2018-May-19 14:30N 26°06' W 080°10'0 0.5
2018-May-19 14:00N 26°06' W 080°10'0 0.0
2018-May-19 13:30N 26°06' W 080°10'0 0.0
2018-May-19 13:00N 26°06' W 080°10'0 0.0
2018-May-19 12:27N 26°06' W 080°10'0 0.0
2018-May-19 11:57N 26°06' W 080°10'0 0.0
2018-May-19 11:30N 26°06' W 080°10'0 0.0
2018-May-19 11:00N 26°06' W 080°10'0 0.0
2018-May-19 10:30N 26°06' W 080°10'0 0.0
2018-May-19 10:00N 26°06' W 080°10'0 0.5
2018-May-19 09:30N 26°06' W 080°10'0 0.5
2018-May-19 09:00N 26°06' W 080°10'0 0.0
2018-May-19 08:30N 26°06' W 080°10'0 0.0
2018-May-19 07:51N 26°06' W 080°10'0 0.0
2018-May-19 07:21N 26°06' W 080°10'0 0.0
2018-May-19 06:51N 26°06' W 080°10'0 0.0
2018-May-19 06:27N 26°06' W 080°10'0 0.0
2018-May-19 05:54N 26°06' W 080°10'0 0.0
2018-May-19 05:24N 26°06' W 080°10'0 0.0
2018-May-19 04:54N 26°06' W 080°10'0 0.0
2018-May-19 04:30N 26°06' W 080°10'0 0.0
2018-May-19 03:54N 26°06' W 080°10'0 0.0
2018-May-19 03:24N 26°06' W 080°10'0 0.0
2018-May-19 02:57N 26°06' W 080°10'0 0.0
2018-May-19 02:27N 26°06' W 080°10'0 0.0
2018-May-19 01:57N 26°06' W 080°10'0 0.0
2018-May-19 01:27N 26°06' W 080°10'0 0.0
2018-May-19 00:57N 26°06' W 080°10'0 0.0
2018-May-19 00:30N 26°06' W 080°10'0 0.0
2018-May-18 23:57N 26°06' W 080°10'0 0.0
2018-May-18 23:30N 26°06' W 080°10'0 0.0
2018-May-18 23:00N 26°06' W 080°10'0 0.0
2018-May-18 22:30N 26°06' W 080°10'0 0.0
2018-May-18 21:57N 26°06' W 080°10'0 0.0
2018-May-18 21:30N 26°06' W 080°10'0 0.0
2018-May-18 21:00N 26°06' W 080°10'0 0.0
2018-May-18 20:30N 26°06' W 080°10'0 0.0
2018-May-18 20:00N 26°06' W 080°10'0 0.0
2018-May-18 19:30N 26°06' W 080°10'0 0.0
2018-May-18 19:00N 26°06' W 080°10'0 0.0
2018-May-18 18:30N 26°06' W 080°10'0 0.0
2018-May-18 18:00N 26°06' W 080°10'0 0.0
2018-May-18 17:21N 26°06' W 080°10'0 0.0
2018-May-18 16:51N 26°06' W 080°10'0 0.0
2018-May-18 16:21N 26°06' W 080°10'0 0.0
2018-May-18 15:54N 26°06' W 080°10'0 0.0
2018-May-18 15:24N 26°06' W 080°10'0 0.0
2018-May-18 15:00N 26°06' W 080°10'0 0.0
2018-May-18 14:27N 26°06' W 080°10'0 0.0
2018-May-18 13:54N 26°06' W 080°10'0 0.0
2018-May-18 13:27N 26°06' W 080°10'0 0.0
2018-May-18 12:42N 26°06' W 080°10'0 0.0
2018-May-18 12:27N 26°06' W 080°10'0 0.0
2018-May-18 11:57N 26°06' W 080°10'0 0.0
2018-May-18 11:24N 26°06' W 080°10'0 0.0
2018-May-18 10:57N 26°06' W 080°10'0 0.0
2018-May-18 10:30N 26°06' W 080°10'0 0.0
2018-May-18 10:00N 26°06' W 080°10'0 0.0
2018-May-18 09:30N 26°06' W 080°10'0 0.0
2018-May-18 09:00N 26°06' W 080°10'0 0.0
2018-May-18 08:30N 26°06' W 080°10'0 0.0
2018-May-18 08:00N 26°06' W 080°10'0 0.0
2018-May-18 07:30N 26°06' W 080°10'0 0.0
2018-May-18 07:00N 26°06' W 080°10'0 0.0
2018-May-18 06:30N 26°06' W 080°10'0 0.0
2018-May-18 06:00N 26°06' W 080°10'0 0.0
2018-May-18 05:30N 26°06' W 080°10'0 0.0
2018-May-18 05:00N 26°06' W 080°10'0 0.0
2018-May-18 04:30N 26°06' W 080°10'0 0.0
2018-May-18 04:00N 26°06' W 080°10'0 0.0
2018-May-18 03:21N 26°06' W 080°10'0 0.0
2018-May-18 02:51N 26°06' W 080°10'0 0.0
2018-May-18 02:24N 26°06' W 080°10'0 0.0
2018-May-18 01:54N 26°06' W 080°10'0 0.0
2018-May-18 01:24N 26°06' W 080°10'0 0.0
2018-May-18 00:54N 26°06' W 080°10'0 0.0
2018-May-18 00:24N 26°06' W 080°10'0 0.0
2018-May-17 23:54N 26°06' W 080°10'0 0.0
2018-May-17 23:27N 26°06' W 080°10'0 0.0
2018-May-17 22:57N 26°06' W 080°10'0 0.0
2018-May-17 22:30N 26°06' W 080°10'0 0.0
2018-May-17 21:57N 26°06' W 080°10'0 0.0
2018-May-17 21:27N 26°06' W 080°10'0 0.0
2018-May-17 20:57N 26°06' W 080°10'0 0.0
2018-May-17 20:30N 26°06' W 080°10'0 0.0
2018-May-17 20:00N 26°06' W 080°10'0 0.0
2018-May-17 19:30N 26°06' W 080°10'0 0.0
2018-May-17 19:00N 26°06' W 080°10'0 0.0
2018-May-17 18:30N 26°06' W 080°10'0 0.0
2018-May-17 18:00N 26°06' W 080°10'0 0.0
2018-May-17 17:30N 26°06' W 080°10'0 0.0
2018-May-17 17:00N 26°06' W 080°10'0 0.0
2018-May-17 16:30N 26°06' W 080°10'0 0.0
2018-May-17 16:00N 26°06' W 080°10'0 0.0
2018-May-17 15:30N 26°06' W 080°10'0 0.0
2018-May-17 15:00N 26°06' W 080°10'0 0.0
2018-May-17 14:21N 26°06' W 080°10'0 0.0
2018-May-17 13:51N 26°06' W 080°10'0 0.0
2018-May-17 13:21N 26°06' W 080°10'0 0.0
2018-May-17 12:54N 26°06' W 080°10'0 0.0
2018-May-17 12:24N 26°06' W 080°10'0 0.0
2018-May-17 11:54N 26°06' W 080°10'0 0.0
2018-May-17 11:24N 26°06' W 080°10'0 0.0
2018-May-17 10:54N 26°06' W 080°10'0 0.0
2018-May-17 10:24N 26°06' W 080°10'0 0.0
2018-May-17 09:57N 26°06' W 080°10'0 0.0
2018-May-17 09:27N 26°06' W 080°10'0 0.0
2018-May-17 08:57N 26°06' W 080°10'0 0.0
2018-May-17 08:27N 26°06' W 080°10'0 0.0
2018-May-17 07:57N 26°06' W 080°10'0 0.0
2018-May-17 07:27N 26°06' W 080°10'0 0.0
2018-May-17 06:57N 26°06' W 080°10'0 0.0
2018-May-17 06:30N 26°06' W 080°10'0 0.0
2018-May-17 06:00N 26°06' W 080°10'0 0.0
2018-May-17 05:30N 26°06' W 080°10'0 0.0
2018-May-17 05:00N 26°06' W 080°10'0 0.0
2018-May-17 04:30N 26°06' W 080°10'0 0.0
2018-May-17 03:57N 26°06' W 080°10'0 0.0
2018-May-17 03:30N 26°06' W 080°10'0 0.0
2018-May-17 03:00N 26°06' W 080°10'0 0.0
2018-May-17 02:30N 26°06' W 080°10'0 0.0
2018-May-17 02:00N 26°06' W 080°10'0 0.0
2018-May-17 01:30N 26°06' W 080°10'0 0.0
2018-May-17 01:00N 26°06' W 080°10'0 0.0
2018-May-17 00:30N 26°06' W 080°10'0 0.0
2018-May-16 23:51N 26°06' W 080°10'0 0.0
2018-May-16 23:21N 26°06' W 080°10'0 0.0
2018-May-16 22:51N 26°06' W 080°10'0 0.0
2018-May-16 22:24N 26°06' W 080°10'0 0.0
2018-May-16 21:54N 26°06' W 080°10'0 0.0
2018-May-16 21:24N 26°06' W 080°10'0 0.0
2018-May-16 20:54N 26°06' W 080°10'0 0.0
2018-May-16 20:24N 26°06' W 080°10'0 0.0
2018-May-16 19:54N 26°06' W 080°10'0 0.0
2018-May-16 19:27N 26°06' W 080°10'0 0.0
2018-May-16 18:57N 26°06' W 080°10'0 0.0
2018-May-16 18:27N 26°06' W 080°10'0 0.0
2018-May-16 17:57N 26°06' W 080°10'0 0.0
2018-May-16 17:27N 26°06' W 080°10'0 0.0
2018-May-16 17:00N 26°06' W 080°10'0 0.0
2018-May-16 16:30N 26°06' W 080°10'0 0.0
2018-May-16 16:00N 26°06' W 080°10'0 0.0
2018-May-16 15:30N 26°06' W 080°10'0 0.0
2018-May-16 14:57N 26°06' W 080°10'0 0.0
2018-May-16 14:30N 26°06' W 080°10'0 0.0
2018-May-16 14:00N 26°06' W 080°10'0 0.0
2018-May-16 13:30N 26°06' W 080°10'0 0.0
2018-May-16 13:00N 26°06' W 080°10'0 0.0
2018-May-16 12:30N 26°06' W 080°10'0 0.0
2018-May-16 12:00N 26°06' W 080°10'0 0.0
2018-May-16 11:30N 26°06' W 080°10'0 0.0
2018-May-16 11:00N 26°06' W 080°10'0 0.0
2018-May-16 10:21N 26°06' W 080°10'0 0.0
2018-May-16 09:51N 26°06' W 080°10'0 0.0
2018-May-16 09:21N 26°06' W 080°10'0 0.0
2018-May-16 08:51N 26°06' W 080°10'0 0.0
2018-May-16 08:24N 26°06' W 080°10'0 0.0
2018-May-16 07:54N 26°06' W 080°10'0 0.0
2018-May-16 07:24N 26°06' W 080°10'0 0.0
2018-May-16 06:54N 26°06' W 080°10'0 0.0
2018-May-16 06:24N 26°06' W 080°10'0 0.0
2018-May-16 05:57N 26°06' W 080°10'0 0.0
2018-May-16 05:27N 26°06' W 080°10'0 0.0
2018-May-16 04:57N 26°06' W 080°10'0 0.0
2018-May-16 04:30N 26°06' W 080°10'0 0.0
2018-May-16 03:57N 26°06' W 080°10'0 0.0
2018-May-16 03:24N 26°06' W 080°10'0 0.0
2018-May-16 03:00N 26°06' W 080°10'0 0.0
2018-May-16 02:30N 26°06' W 080°10'0 0.0
2018-May-16 02:00N 26°06' W 080°10'0 0.0
2018-May-16 01:30N 26°06' W 080°10'0 0.0
2018-May-16 01:00N 26°06' W 080°10'0 0.0
2018-May-16 00:30N 26°06' W 080°10'0 0.0
2018-May-16 00:00N 26°06' W 080°10'0 0.0
2018-May-15 23:30N 26°06' W 080°10'0 0.0
2018-May-15 23:00N 26°06' W 080°10'0 0.0
2018-May-15 22:30N 26°06' W 080°10'0 0.0
2018-May-15 22:00N 26°06' W 080°10'0 0.0
2018-May-15 21:30N 26°06' W 080°10'0 0.0
2018-May-15 21:00N 26°06' W 080°10'0 0.0
2018-May-15 20:21N 26°06' W 080°10'0 0.0
2018-May-15 19:51N 26°06' W 080°10'0 0.0
2018-May-15 19:21N 26°06' W 080°10'0 0.0
2018-May-15 18:54N 26°06' W 080°10'0 0.0
2018-May-15 18:24N 26°06' W 080°10'0 0.0
2018-May-15 17:54N 26°06' W 080°10'0 0.0
2018-May-15 17:24N 26°06' W 080°10'0 0.0
2018-May-15 16:54N 26°06' W 080°10'0 0.0
2018-May-15 16:24N 26°06' W 080°10'0 0.0
2018-May-15 15:57N 26°06' W 080°10'0 0.0
2018-May-15 15:27N 26°06' W 080°10'0 0.0
2018-May-15 14:57N 26°06' W 080°10'0 0.0
2018-May-15 14:27N 26°06' W 080°10'0 0.0
2018-May-15 13:57N 26°06' W 080°10'0 0.0
2018-May-15 13:30N 26°06' W 080°10'0 0.0
2018-May-15 12:57N 26°06' W 080°10'0 0.0
2018-May-15 12:30N 26°06' W 080°10'0 0.0
2018-May-15 12:00N 26°06' W 080°10'0 0.0
2018-May-15 11:30N 26°06' W 080°10'0 0.0
2018-May-15 11:00N 26°06' W 080°10'0 0.0
2018-May-15 10:27N 26°06' W 080°10'0 0.0
2018-May-15 10:00N 26°06' W 080°10'0 0.0
2018-May-15 09:30N 26°06' W 080°10'0 0.0
2018-May-15 09:00N 26°06' W 080°10'0 0.0
2018-May-15 08:30N 26°06' W 080°10'0 0.0
2018-May-15 08:00N 26°06' W 080°10'0 0.0
2018-May-15 07:30N 26°06' W 080°10'0 0.0
2018-May-15 07:00N 26°06' W 080°10'0 0.0
2018-May-15 06:30N 26°06' W 080°10'0 0.0
2018-May-15 05:51N 26°06' W 080°10'0 0.0
2018-May-15 05:21N 26°06' W 080°10'0 0.0
2018-May-15 05:00N 26°06' W 080°10'0 0.0
2018-May-15 04:27N 26°06' W 080°10'0 0.0
2018-May-15 03:54N 26°06' W 080°10'0 0.0
2018-May-15 03:24N 26°06' W 080°10'0 0.0
2018-May-15 02:54N 26°06' W 080°10'0 0.0
2018-May-15 02:24N 26°06' W 080°10'0 0.0
2018-May-15 01:57N 26°06' W 080°10'0 0.0
2018-May-15 01:24N 26°06' W 080°10'0 0.0
2018-May-15 00:57N 26°06' W 080°10'0 0.0
2018-May-15 00:27N 26°06' W 080°10'0 0.0
2018-May-14 23:57N 26°06' W 080°10'0 0.0
2018-May-14 23:27N 26°06' W 080°10'0 0.0
2018-May-14 23:00N 26°06' W 080°10'0 0.0
2018-May-14 22:30N 26°06' W 080°10'0 0.0
2018-May-14 21:45N 26°06' W 080°10'0 0.0
2018-May-14 21:27N 26°06' W 080°10'0 0.0
2018-May-14 21:00N 26°06' W 080°10'0 0.0
2018-May-14 20:30N 26°06' W 080°10'0 0.0
2018-May-14 20:00N 26°06' W 080°10'0 0.0
2018-May-14 19:30N 26°06' W 080°10'0 0.0
2018-May-14 19:00N 26°06' W 080°10'0 0.0
2018-May-14 18:30N 26°06' W 080°10'0 0.0
2018-May-14 17:51N 26°06' W 080°10'0 0.0
2018-May-14 17:30N 26°06' W 080°10'0 0.0
2018-May-14 17:00N 26°06' W 080°10'0 0.0
2018-May-14 16:30N 26°06' W 080°10'0 0.0
2018-May-14 15:54N 26°06' W 080°10'0 0.0
2018-May-14 15:09N 26°06' W 080°10'0 0.0
2018-May-14 14:54N 26°06' W 080°10'0 0.0
2018-May-14 14:27N 26°06' W 080°10'0 0.0
2018-May-14 13:54N 26°06' W 080°10'0 0.0
2018-May-14 13:24N 26°06' W 080°10'0 0.0
2018-May-14 12:54N 26°06' W 080°10'0 0.0
2018-May-14 12:27N 26°06' W 080°10'0 0.0
2018-May-14 11:54N 26°06' W 080°10'0 0.0
2018-May-14 11:27N 26°06' W 080°10'0 0.0
2018-May-14 10:57N 26°06' W 080°10'0 0.0
2018-May-14 10:27N 26°06' W 080°10'0 0.0
2018-May-14 09:57N 26°06' W 080°10'0 0.0
2018-May-14 09:30N 26°06' W 080°10'0 0.0
2018-May-14 09:00N 26°06' W 080°10'0 0.0
2018-May-14 08:30N 26°06' W 080°10'0 0.0
2018-May-14 08:00N 26°06' W 080°10'0 0.0
2018-May-14 07:30N 26°06' W 080°10'0 0.0
2018-May-14 07:00N 26°06' W 080°10'0 0.0
2018-May-14 06:30N 26°06' W 080°10'0 0.0
2018-May-14 06:00N 26°06' W 080°10'0 0.0
2018-May-14 05:30N 26°06' W 080°10'0 0.0
2018-May-14 05:00N 26°06' W 080°10'0 0.0
2018-May-14 04:30N 26°06' W 080°10'0 0.0
2018-May-14 04:00N 26°06' W 080°10'0 0.0
2018-May-14 03:30N 26°06' W 080°10'0 0.0
2018-May-14 03:00N 26°06' W 080°10'0 0.0
2018-May-14 02:27N 26°06' W 080°10'0 0.0
2018-May-14 01:51N 26°06' W 080°10'0 0.0
2018-May-14 01:30N 26°06' W 080°10'0 0.0
2018-May-14 00:54N 26°06' W 080°10'0 0.0
2018-May-14 00:24N 26°06' W 080°10'0 0.0
2018-May-13 23:54N 26°06' W 080°10'0 0.0
2018-May-13 23:24N 26°06' W 080°10'0 0.0
2018-May-13 22:54N 26°06' W 080°10'  

Dump ship's entire track history